Terminal Aerodrome Forecast
Issued by NWS Sterling, VA

Current Version | Previous Version | Graphics & Text | Print | Product List | Glossary On
Versions: 1 2 3 4 5 6 7 8 9 10 11 12 13 14 15 16 17 18 19 20 21 22 23 24
000
FTUS41 KLWX 272339
TAFDCA
TAF
KDCA 272339Z 2800/2824 18011KT P6SM BKN080
     FM280500 20006KT P6SM BKN040
     FM280900 25006KT P6SM BKN100
     FM281000 27006KT P6SM SCT250
     FM281200 32007KT P6SM SCT250
     FM281700 24004KT P6SM FEW250
     FM282000 18006KT P6SM FEW250=

USA.gov is the U.S. government's official web portal to all federal, state and local government web resources and services.